Terminal Aerodrome Forecast
Issued by NWS

Home | Current Version | Previous Version | Text Only | Print | Product List | Glossary On
Versions: 1 2 3 4 5 6 7 8 9 10 11 12 13 14
000
FTUS45 KTFX 011700
TAFHLN
TAF
KHLN 011737Z 0118/0218 VRB03KT P6SM BKN200
     FM012000 20007KT P6SM BKN070 OVC150
     FM020200 25007KT P6SM VCSH SCT030 OVC050
     FM021200 23005KT P6SM BKN040=

USA.gov is the U.S. government's official web portal to all federal, state and local government web resources and services.